Weather reports worldwide

Advertisment
Usk, United Kingdom (99176): temperature & dewpoint: 04.07.2020 05:00:00 - 10.07.2020 05:00:00 (BST)Usk, United Kingdom (99176): temperature -20cm & temperature -100cm: 04.07.2020 05:00:00 - 10.07.2020 05:00:00 (BST)Usk, United Kingdom (99176): precipitation: 04.07.2020 05:00:00 - 10.07.2020 05:00:00 (BST)
Date & Time tt [°C] td [°C] tt -20cm [°C] tt -100cm [°C] rr [mm]
10.07.2020 05:00:00 - - - - -
10.07.2020 04:00:00 10,3 9,8 - - 0,0
10.07.2020 03:00:00 11,6 10,9 - - 0,0
10.07.2020 02:00:00 13,0 12,5 - - 0,0
10.07.2020 01:00:00 13,0 12,5 - - 0,0
10.07.2020 00:00:00 13,1 12,3 - - 0,0
09.07.2020 23:00:00 13,4 12,4 - - 0,0
09.07.2020 22:00:00 13,8 12,7 - - 0,0
09.07.2020 21:00:00 14,1 13,1 - - 0,0
09.07.2020 20:00:00 14,4 13,6 - - 0,2
09.07.2020 19:00:00 15,0 14,1 - - 1,2
09.07.2020 18:00:00 15,9 15,2 - - 2,6
09.07.2020 17:00:00 16,4 15,1 - - 1,2
09.07.2020 16:00:00 19,0 15,4 - - 0,0
09.07.2020 15:00:00 18,4 14,7 - - 0,0
09.07.2020 14:00:00 19,4 15,1 - - 0,0
09.07.2020 13:00:00 18,9 14,8 - - 0,0
09.07.2020 12:00:00 19,0 15,2 - - 0,0
09.07.2020 11:00:00 18,4 15,2 - - 0,0
09.07.2020 10:00:00 18,2 14,9 17,4 16,5 0,0
09.07.2020 09:00:00 17,5 14,8 - - 0,0
09.07.2020 08:00:00 16,3 15,0 - - 0,0
09.07.2020 07:00:00 15,5 14,8 - - 0,2
09.07.2020 06:00:00 15,5 14,5 - - 0,0
09.07.2020 05:00:00 15,4 14,4 - - 0,2
09.07.2020 04:00:00 15,3 14,3 - - 0,2
09.07.2020 03:00:00 15,2 14,1 - - 0,2
09.07.2020 02:00:00 15,7 14,1 - - 0,0
09.07.2020 01:00:00 16,2 14,1 - - 0,0
09.07.2020 00:00:00 16,2 14,3 - - 0,0
08.07.2020 23:00:00 16,3 14,2 - - 0,0
08.07.2020 22:00:00 16,2 14,3 - - 0,0
08.07.2020 21:00:00 16,3 14,1 - - 0,0
08.07.2020 20:00:00 16,9 14,4 - - 0,0
08.07.2020 19:00:00 16,6 14,3 - - 0,2
08.07.2020 18:00:00 17,0 14,5 - - 0,0
08.07.2020 17:00:00 17,4 14,5 - - 0,0
08.07.2020 16:00:00 18,7 14,3 - - 0,0
08.07.2020 15:00:00 19,4 14,6 - - 0,0
08.07.2020 14:00:00 19,0 15,2 - - 0,0
08.07.2020 13:00:00 18,7 15,7 - - 0,2
08.07.2020 12:00:00 18,6 15,5 - - 0,0
08.07.2020 11:00:00 18,3 15,3 - - 0,0
08.07.2020 10:00:00 17,1 15,0 17,2 16,7 0,0
08.07.2020 09:00:00 16,5 14,6 - - 0,0
08.07.2020 08:00:00 15,9 14,3 - - 0,0
08.07.2020 07:00:00 15,6 14,2 - - 0,0
08.07.2020 06:00:00 15,4 14,1 - - 0,2
08.07.2020 05:00:00 15,3 14,1 - - 0,2
08.07.2020 04:00:00 15,5 14,0 - - 0,6
08.07.2020 03:00:00 15,8 13,8 - - 0,0
08.07.2020 02:00:00 15,4 14,0 - - 0,0
08.07.2020 01:00:00 15,3 14,0 - - 0,0
08.07.2020 00:00:00 14,9 13,9 - - 0,2
07.07.2020 23:00:00 14,7 13,7 - - 0,2
07.07.2020 22:00:00 14,9 13,3 - - 0,0
07.07.2020 21:00:00 15,4 12,9 - - 0,0
07.07.2020 20:00:00 15,4 12,7 - - 0,0
07.07.2020 19:00:00 15,3 12,6 - - 0,0
07.07.2020 18:00:00 14,9 11,5 - - 0,0
07.07.2020 17:00:00 14,9 11,5 - - 0,0
07.07.2020 16:00:00 15,2 10,0 - - 0,0
07.07.2020 15:00:00 16,6 9,8 - - 0,0
07.07.2020 14:00:00 16,5 10,2 - - 0,0
07.07.2020 13:00:00 16,0 10,0 - - 0,0
07.07.2020 12:00:00 15,8 10,1 - - 0,0
07.07.2020 11:00:00 15,9 10,3 - - 0,0
07.07.2020 10:00:00 16,2 10,5 17,4 16,7 0,0
07.07.2020 09:00:00 15,8 11,0 - - 0,0
07.07.2020 08:00:00 14,9 10,3 - - 0,0
07.07.2020 07:00:00 13,5 10,6 - - 0,0
07.07.2020 06:00:00 12,8 10,1 - - 0,0
07.07.2020 05:00:00 12,5 9,5 - - 0,0
07.07.2020 04:00:00 12,5 9,1 - - 0,0
07.07.2020 03:00:00 13,5 8,9 - - 0,0
07.07.2020 02:00:00 12,5 9,7 - - 0,0
07.07.2020 01:00:00 12,1 9,0 - - 0,0
07.07.2020 00:00:00 11,3 8,6 - - 0,0
06.07.2020 23:00:00 12,1 8,5 - - 0,0
06.07.2020 22:00:00 13,2 7,1 - - 0,0
06.07.2020 21:00:00 15,9 6,8 - - 0,0
06.07.2020 20:00:00 17,4 6,6 - - 0,0
06.07.2020 19:00:00 18,3 6,3 - - 0,0
06.07.2020 18:00:00 18,8 6,6 - - 0,0
06.07.2020 17:00:00 18,7 6,2 - - 0,0
06.07.2020 16:00:00 19,2 8,6 - - 0,0
06.07.2020 15:00:00 19,2 9,3 - - 0,0
06.07.2020 14:00:00 18,3 8,6 - - 0,0
06.07.2020 13:00:00 17,8 9,1 - - 0,0
06.07.2020 12:00:00 16,2 9,4 - - 0,0
06.07.2020 11:00:00 15,1 8,3 - - 0,0
06.07.2020 10:00:00 14,6 7,6 17,2 16,5 0,0
06.07.2020 09:00:00 14,5 7,3 - - 0,0
06.07.2020 08:00:00 14,1 7,8 - - 0,0
06.07.2020 07:00:00 13,3 7,5 - - 0,0
06.07.2020 06:00:00 12,5 7,8 - - 0,0
06.07.2020 05:00:00 12,5 7,9 - - 0,0
06.07.2020 04:00:00 12,3 8,0 - - 0,0
06.07.2020 03:00:00 12,7 8,1 - - 0,0
06.07.2020 02:00:00 13,0 7,8 - - 0,0
06.07.2020 01:00:00 13,4 7,9 - - 0,0
06.07.2020 00:00:00 13,9 7,9 - - 0,0
05.07.2020 23:00:00 14,0 8,3 - - 0,0
05.07.2020 22:00:00 14,1 8,0 - - 0,0
05.07.2020 21:00:00 14,6 7,8 - - 0,0
05.07.2020 20:00:00 15,7 8,0 - - 0,0
05.07.2020 19:00:00 16,9 8,1 - - 0,0
05.07.2020 18:00:00 16,6 9,5 - - 0,0
05.07.2020 17:00:00 17,0 9,5 - - 0,0
05.07.2020 16:00:00 17,4 8,7 - - 0,0
05.07.2020 15:00:00 17,6 9,6 - - 0,0
05.07.2020 14:00:00 15,9 8,4 - - 0,0
05.07.2020 13:00:00 16,4 7,3 - - 0,0
05.07.2020 12:00:00 16,9 7,6 - - 0,0
05.07.2020 11:00:00 16,7 8,3 - - 0,0
05.07.2020 10:00:00 15,4 8,1 17,7 16,5 0,0
05.07.2020 09:00:00 15,5 9,4 - - 0,0
05.07.2020 08:00:00 15,2 10,4 - - 0,0
05.07.2020 07:00:00 15,3 11,9 - - 0,0
05.07.2020 06:00:00 15,3 12,1 - - 0,2
05.07.2020 05:00:00 15,9 14,0 - - 0,0
05.07.2020 04:00:00 17,0 14,0 - - 0,2
05.07.2020 03:00:00 16,7 14,7 - - 0,0
05.07.2020 02:00:00 16,2 14,9 - - 0,2
05.07.2020 01:00:00 15,8 15,1 - - 0,2
05.07.2020 00:00:00 15,5 14,5 - - 0,0
04.07.2020 23:00:00 15,8 14,0 - - 0,0
04.07.2020 22:00:00 15,7 13,9 - - 0,0
04.07.2020 21:00:00 16,2 14,2 - - 0,0
04.07.2020 20:00:00 17,2 14,1 - - 0,0
04.07.2020 19:00:00 17,4 14,2 - - 0,0
04.07.2020 18:00:00 17,9 14,5 - - 0,0
04.07.2020 17:00:00 18,5 14,7 - - 0,0
04.07.2020 16:00:00 18,5 14,5 - - 0,0
04.07.2020 15:00:00 19,0 14,9 - - 0,0
04.07.2020 14:00:00 19,1 14,8 - - 0,0
04.07.2020 13:00:00 18,7 14,5 - - 0,0
04.07.2020 12:00:00 18,9 14,9 - - 0,0
04.07.2020 11:00:00 18,0 14,5 - - 0,0
04.07.2020 10:00:00 17,0 14,6 17,2 16,5 0,0
04.07.2020 09:00:00 16,9 14,4 - - 0,0
04.07.2020 08:00:00 16,8 14,4 - - 0,0
04.07.2020 07:00:00 16,3 14,1 - - 0,0
04.07.2020 06:00:00 16,0 14,7 - - 0,0
04.07.2020 05:00:00 15,9 14,8 - - 0,0

tt = temperature
td = dewpoint
tt -20cm = temperature -20cm
tt -100cm = temperature -100cm
rr = precipitation

Next stations